CheckWX is a tool to help pilots better visualize weather data.  It is not intended as a substitute for an official pre-flight weather briefing.

05:29:40 UTC

KPPO METAR
La Porte Municipal Airport
La Porte, Indiana, USA
Current

35 mins ago

KPPO 280455Z AUTO 30006KT 10SM SCT045 SCT070 OVC090 M04/M11 A3002 RMK AO2 T10361112
Observed
Feb-28 @ 04:55 UTC
Wind
  • 300° at 6 KTS
Visibility
10 SM
Flight Rules
VFR
Cloud Levels
  • Scattered at 4,500' AGL
  • Scattered at 7,000' AGL
  • Overcast at 9,000' AGL
Temperature
-4°C / 25°F
Dewpoint
-11°C / 12°F
Humidity
59%
Altimeter
30.02" Hg
Pressure
1016.62 hPa
Previous

55 mins ago

KPPO 280435Z AUTO 30007KT 10SM SCT045 SCT080 BKN100 M04/M11 A3003 RMK AO2 T10371110
Observed
Feb-28 @ 04:35 UTC
Wind
  • 300° at 7 KTS
Visibility
10 SM
Flight Rules
VFR
Cloud Levels
  • Scattered at 4,500' AGL
  • Scattered at 8,000' AGL
  • Broken at 10,000' AGL
Temperature
-4°C / 25°F
Dewpoint
-11°C / 12°F
Humidity
59%
Altimeter
30.03" Hg
Pressure
1016.92 hPa
Previous

1 hour ago

KPPO 280415Z AUTO 31006KT 10SM SCT100 BKN120 M04/M11 A3003 RMK AO2 T10361111
Observed
Feb-28 @ 04:15 UTC
Wind
  • 310° at 6 KTS
Visibility
10 SM
Flight Rules
VFR
Cloud Levels
  • Scattered at 10,000' AGL
  • Broken at 12,000' AGL
Temperature
-4°C / 25°F
Dewpoint
-11°C / 12°F
Humidity
59%
Altimeter
30.03" Hg
Pressure
1016.92 hPa